Time;durP1;ratioP1;P1;durP2;ratioP2;P2;SDS_P1;SDS_P2;PMS_P1;PMS_P2;Temp;Humidity;BMP_temperature;BMP_pressure;BME280_temperature;BME280_humidity;BME280_pressure;Samples;Min_cycle;Max_cycle;Signal;HPM_P1;HPM_P2
2022/07/08 00:01:08;;;;;;;1.75;1.08;;;21.00;54.90;;;;;;5015075;28;20195;-66
2022/07/08 00:03:34;;;;;;;3.70;1.40;;;20.90;54.90;;;;;;5015539;28;20554;-66
2022/07/08 00:05:59;;;;;;;1.98;1.05;;;20.90;54.90;;;;;;5015123;28;20530;-66
2022/07/08 00:08:27;;;;;;;3.10;1.42;;;20.90;54.80;;;;;;5015002;28;20173;-66
2022/07/08 00:10:52;;;;;;;2.47;0.85;;;20.90;54.90;;;;;;5015416;28;20177;-66
2022/07/08 00:13:18;;;;;;;2.58;1.27;;;20.90;54.90;;;;;;5015518;28;20183;-66
2022/07/08 00:15:43;;;;;;;2.75;1.00;;;20.90;54.90;;;;;;5014413;28;20516;-67
2022/07/08 00:18:09;;;;;;;2.00;0.90;;;20.90;54.90;;;;;;5015191;28;20185;-67
2022/07/08 00:20:34;;;;;;;1.40;0.80;;;20.90;54.90;;;;;;5015230;28;20275;-66
2022/07/08 00:23:00;;;;;;;3.05;1.20;;;20.90;54.90;;;;;;5014445;28;20175;-65
2022/07/08 00:25:25;;;;;;;1.60;1.00;;;20.90;55.00;;;;;;5015088;28;20258;-65
2022/07/08 00:27:51;;;;;;;1.90;1.13;;;20.90;54.90;;;;;;5015100;28;20177;-66
2022/07/08 00:30:17;;;;;;;3.58;1.00;;;20.90;54.90;;;;;;5014423;28;20223;-65
2022/07/08 00:32:42;;;;;;;1.55;0.90;;;20.90;54.90;;;;;;5014925;28;20589;-65
2022/07/08 00:35:08;;;;;;;2.75;1.17;;;20.90;55.00;;;;;;5014853;28;20200;-67
2022/07/08 00:37:34;;;;;;;2.65;1.05;;;20.90;55.00;;;;;;5014492;28;20181;-66
2022/07/08 00:39:59;;;;;;;2.38;1.05;;;20.90;55.00;;;;;;5014792;28;20216;-66
2022/07/08 00:42:25;;;;;;;1.38;1.02;;;20.90;55.00;;;;;;5015080;28;20276;-66
2022/07/08 00:44:50;;;;;;;1.30;1.00;;;20.90;55.00;;;;;;5014043;28;20610;-66
2022/07/08 00:47:16;;;;;;;3.10;1.13;;;20.90;55.00;;;;;;5014691;28;20538;-65
2022/07/08 00:49:41;;;;;;;1.45;0.93;;;20.90;55.00;;;;;;5014037;28;20299;-64
2022/07/08 00:52:07;;;;;;;1.55;0.90;;;20.90;55.00;;;;;;5014169;28;20527;-65
2022/07/08 00:54:33;;;;;;;2.83;0.93;;;20.90;55.00;;;;;;4980975;28;20644;-65
2022/07/08 00:56:58;;;;;;;1.92;0.73;;;20.90;55.00;;;;;;5013819;28;20636;-66
2022/07/08 00:59:24;;;;;;;2.80;1.15;;;20.90;55.00;;;;;;4997018;28;20208;-66
2022/07/08 01:01:50;;;;;;;1.13;0.88;;;20.90;55.10;;;;;;5014423;28;20598;-65
2022/07/08 01:04:15;;;;;;;2.70;1.27;;;20.90;55.10;;;;;;5013533;28;20232;-66
2022/07/08 01:06:41;;;;;;;2.75;0.85;;;20.90;55.00;;;;;;5014134;28;20173;-66
2022/07/08 01:09:06;;;;;;;2.78;1.00;;;20.90;55.10;;;;;;5014258;28;20187;-67
2022/07/08 01:11:32;;;;;;;2.03;0.90;;;20.90;55.10;;;;;;5013809;28;20176;-66
2022/07/08 01:13:57;;;;;;;2.67;1.10;;;20.90;55.10;;;;;;5013989;28;20176;-66
2022/07/08 01:16:23;;;;;;;3.33;0.80;;;20.90;55.20;;;;;;5014285;28;20250;-67
2022/07/08 01:18:48;;;;;;;1.52;0.73;;;20.90;55.10;;;;;;5013154;28;20203;-66
2022/07/08 01:21:14;;;;;;;2.15;0.93;;;20.80;55.10;;;;;;5014440;28;20806;-66
2022/07/08 01:23:39;;;;;;;2.53;1.10;;;20.80;55.10;;;;;;5014093;28;20635;-66
2022/07/08 01:26:09;;;;;;;3.47;1.33;;;20.80;55.10;;;;;;5013663;28;20215;-67
2022/07/08 01:28:34;;;;;;;1.98;0.90;;;20.80;55.10;;;;;;5014369;28;20172;-66
2022/07/08 01:31:04;;;;;;;1.95;1.05;;;20.90;55.10;;;;;;5013939;28;20179;-65
2022/07/08 01:33:29;;;;;;;1.10;0.70;;;20.80;55.10;;;;;;4996484;28;20702;-68
2022/07/08 01:35:55;;;;;;;2.25;0.80;;;20.80;55.10;;;;;;5013843;28;20172;-66
2022/07/08 01:38:20;;;;;;;3.42;0.90;;;20.80;55.10;;;;;;5014291;28;20254;-67
2022/07/08 01:40:46;;;;;;;1.75;0.90;;;20.80;55.20;;;;;;5013314;28;20234;-67
2022/07/08 01:43:12;;;;;;;2.40;0.90;;;20.80;55.20;;;;;;5014084;28;20219;-66
2022/07/08 01:45:37;;;;;;;2.08;1.23;;;20.80;55.20;;;;;;5013734;28;20519;-66
2022/07/08 01:48:03;;;;;;;2.63;0.98;;;20.80;55.20;;;;;;5012904;28;20252;-64
2022/07/08 01:50:28;;;;;;;1.50;1.10;;;20.80;55.20;;;;;;5014225;28;20263;-65
2022/07/08 01:52:54;;;;;;;2.13;0.85;;;20.80;55.20;;;;;;5013529;28;20640;-65
2022/07/08 01:55:20;;;;;;;3.33;1.00;;;20.80;55.20;;;;;;5013088;28;20203;-66
2022/07/08 01:57:45;;;;;;;2.15;0.70;;;20.80;55.20;;;;;;5013433;28;20173;-66
2022/07/08 02:00:11;;;;;;;1.92;1.15;;;20.80;55.30;;;;;;5013120;28;20306;-66
2022/07/08 02:02:37;;;;;;;2.67;0.80;;;20.80;55.20;;;;;;5011979;28;20174;-66
2022/07/08 02:05:02;;;;;;;1.88;0.85;;;20.80;55.30;;;;;;5013385;28;20520;-66
2022/07/08 02:07:28;;;;;;;1.95;0.70;;;20.80;55.20;;;;;;5012950;28;20184;-67
2022/07/08 02:09:53;;;;;;;1.50;0.80;;;20.80;55.30;;;;;;5013233;28;20183;-66
2022/07/08 02:12:19;;;;;;;1.58;1.02;;;20.80;55.30;;;;;;5013421;28;20187;-66
2022/07/08 02:14:52;;;;;;;1.85;1.33;;;20.80;55.30;;;;;;5012446;28;20172;-66
2022/07/08 02:17:18;;;;;;;1.88;1.05;;;20.80;55.30;;;;;;5013208;28;20579;-66
2022/07/08 02:19:44;;;;;;;2.17;0.95;;;20.80;55.30;;;;;;5013161;28;20220;-66
2022/07/08 02:22:10;;;;;;;2.50;0.95;;;20.80;55.30;;;;;;5012332;28;20643;-66
2022/07/08 02:24:35;;;;;;;1.60;1.05;;;20.80;55.30;;;;;;5013216;28;20184;-66
2022/07/08 02:27:02;;;;;;;1.55;0.90;;;20.80;55.30;;;;;;5012738;28;20176;-66
2022/07/08 02:29:27;;;;;;;2.25;0.98;;;20.70;55.30;;;;;;5012190;28;20211;-65
2022/07/08 02:31:53;;;;;;;1.25;1.00;;;20.80;55.30;;;;;;5012655;28;20206;-66
2022/07/08 02:34:18;;;;;;;4.53;0.88;;;20.70;55.30;;;;;;5013249;28;20200;-66
2022/07/08 02:36:44;;;;;;;1.92;0.90;;;20.80;55.40;;;;;;5011951;28;20176;-67
2022/07/08 02:39:09;;;;;;;0.98;0.70;;;20.70;55.30;;;;;;5012738;28;20212;-66
2022/07/08 02:41:38;;;;;;;0.90;0.55;;;20.70;55.30;;;;;;5012952;28;20172;-66
2022/07/08 02:44:03;;;;;;;2.42;1.02;;;20.70;55.40;;;;;;5012034;28;20241;-65
2022/07/08 02:46:29;;;;;;;1.48;0.68;;;20.70;55.40;;;;;;5012715;28;20236;-65
2022/07/08 02:48:54;;;;;;;1.42;1.00;;;20.70;55.30;;;;;;5012578;28;20197;-65
2022/07/08 02:51:20;;;;;;;3.05;1.00;;;20.70;55.50;;;;;;5012136;28;20181;-65
2022/07/08 02:53:45;;;;;;;1.92;0.70;;;20.70;55.40;;;;;;5012427;28;20176;-65
2022/07/08 02:56:11;;;;;;;1.35;0.95;;;20.70;55.40;;;;;;5012526;28;20654;-66
2022/07/08 02:58:36;;;;;;;2.28;1.30;;;20.70;55.40;;;;;;5011501;28;20564;-65
2022/07/08 03:01:02;;;;;;;1.25;0.98;;;20.70;55.50;;;;;;5012328;28;20183;-66
2022/07/08 03:03:27;;;;;;;3.50;1.20;;;20.70;55.50;;;;;;5012473;28;20266;-66
2022/07/08 03:05:53;;;;;;;1.38;0.95;;;20.70;55.40;;;;;;5011863;28;20255;-65
2022/07/08 03:08:18;;;;;;;1.88;0.90;;;20.70;55.50;;;;;;5012684;28;20263;-66
2022/07/08 03:10:44;;;;;;;1.80;1.00;;;20.70;55.40;;;;;;5011516;28;20238;-66
2022/07/08 03:13:09;;;;;;;3.08;1.02;;;20.70;55.60;;;;;;5013809;28;20176;-66
2022/07/08 03:15:35;;;;;;;2.55;1.00;;;20.70;55.60;;;;;;5016462;28;20631;-67
2022/07/08 03:18:00;;;;;;;1.63;1.17;;;20.70;55.60;;;;;;5015604;28;20234;-66
2022/07/08 03:20:26;;;;;;;1.00;0.70;;;20.70;55.60;;;;;;5016452;28;20244;-66
2022/07/08 03:22:52;;;;;;;2.42;0.90;;;20.60;55.70;;;;;;5016240;28;20214;-66
2022/07/08 03:25:17;;;;;;;1.67;1.13;;;20.70;55.70;;;;;;5015623;28;20176;-66
2022/07/08 03:27:43;;;;;;;1.67;0.93;;;20.70;55.60;;;;;;5016264;28;20194;-65
2022/07/08 03:30:08;;;;;;;2.45;1.35;;;20.60;55.70;;;;;;5016026;28;20402;-66
2022/07/08 03:32:34;;;;;;;2.95;1.05;;;20.70;55.70;;;;;;5015680;28;20199;-65
2022/07/08 03:34:59;;;;;;;1.67;0.98;;;20.60;55.70;;;;;;5015845;28;20180;-66
2022/07/08 03:37:28;;;;;;;1.90;0.85;;;20.70;55.80;;;;;;5016059;28;20183;-66
2022/07/08 03:39:53;;;;;;;1.35;0.80;;;20.60;55.70;;;;;;5014778;28;20551;-65
2022/07/08 03:42:19;;;;;;;1.83;0.90;;;20.60;55.80;;;;;;5015864;28;20178;-66
2022/07/08 03:44:45;;;;;;;1.45;0.90;;;20.60;55.80;;;;;;5015578;28;20223;-64
2022/07/08 03:47:11;;;;;;;1.85;1.08;;;20.60;55.90;;;;;;5015179;28;20168;-65
2022/07/08 03:49:36;;;;;;;1.75;1.20;;;20.60;55.80;;;;;;5015701;28;20177;-65
2022/07/08 03:52:02;;;;;;;2.75;1.02;;;20.60;55.80;;;;;;5015809;28;20581;-65
2022/07/08 03:54:28;;;;;;;1.23;0.90;;;20.60;55.90;;;;;;5015128;28;20523;-65
2022/07/08 03:56:53;;;;;;;1.55;0.90;;;20.60;55.80;;;;;;5015475;28;20506;-65
2022/07/08 03:59:19;;;;;;;1.80;0.77;;;20.60;55.90;;;;;;5015454;28;20231;-66
2022/07/08 04:01:44;;;;;;;3.47;1.48;;;20.60;55.80;;;;;;5014963;28;20263;-66
2022/07/08 04:04:10;;;;;;;1.10;0.80;;;20.60;55.80;;;;;;5015397;28;20228;-65
2022/07/08 04:06:36;;;;;;;2.75;0.90;;;20.60;55.90;;;;;;5015630;28;20252;-66
2022/07/08 04:09:02;;;;;;;1.98;1.00;;;20.60;55.90;;;;;;5014762;28;20180;-66
2022/07/08 04:11:28;;;;;;;2.38;1.00;;;20.60;55.90;;;;;;5015552;28;20184;-66
2022/07/08 04:13:53;;;;;;;4.00;0.88;;;20.60;55.90;;;;;;5014340;28;20176;-66
2022/07/08 04:16:19;;;;;;;3.00;1.13;;;20.60;55.90;;;;;;5015533;28;20628;-66
2022/07/08 04:18:44;;;;;;;2.28;1.23;;;20.60;55.90;;;;;;5015234;28;20219;-66
2022/07/08 04:21:10;;;;;;;1.88;0.90;;;20.60;55.80;;;;;;5014483;28;20176;-66
2022/07/08 04:23:35;;;;;;;1.92;0.90;;;20.60;55.90;;;;;;5015336;28;20232;-65
2022/07/08 04:26:01;;;;;;;2.55;1.00;;;20.60;55.90;;;;;;5014076;28;20193;-65
2022/07/08 04:28:27;;;;;;;1.88;0.90;;;20.60;55.90;;;;;;5014393;28;20751;-65
2022/07/08 04:30:52;;;;;;;3.88;0.95;;;20.60;56.00;;;;;;5015107;28;20180;-66
2022/07/08 04:33:18;;;;;;;4.00;1.23;;;20.60;55.90;;;;;;5015171;28;20554;-66
2022/07/08 04:35:43;;;;;;;2.80;0.90;;;20.60;55.80;;;;;;5014089;28;20262;-66
2022/07/08 04:38:09;;;;;;;1.90;0.95;;;20.60;55.80;;;;;;5014810;28;20263;-66
2022/07/08 04:40:35;;;;;;;2.58;1.45;;;20.60;55.70;;;;;;5014978;28;20263;-65
2022/07/08 04:43:00;;;;;;;3.03;1.15;;;20.60;55.80;;;;;;5013936;28;20541;-66
2022/07/08 04:45:26;;;;;;;2.42;1.33;;;20.60;55.80;;;;;;5015051;28;20180;-65
2022/07/08 04:47:51;;;;;;;3.33;1.00;;;20.60;55.60;;;;;;5014758;28;20172;-65
2022/07/08 04:50:17;;;;;;;1.50;1.00;;;20.70;55.60;;;;;;5014112;28;20606;-64
2022/07/08 04:52:43;;;;;;;3.03;1.05;;;20.60;55.60;;;;;;5014434;28;20180;-64
2022/07/08 04:55:27;;;;;;;2.40;1.20;;;20.60;55.60;;;;;;5014559;28;20177;-65
2022/07/08 04:57:54;;;;;;;2.20;1.08;;;20.60;55.60;;;;;;5013887;28;20222;-65
2022/07/08 05:00:19;;;;;;;1.45;0.90;;;20.70;55.60;;;;;;5014664;28;20221;-66
2022/07/08 05:02:45;;;;;;;1.75;1.00;;;20.70;55.70;;;;;;5014078;28;20595;-66
2022/07/08 05:05:10;;;;;;;1.58;1.20;;;20.70;55.60;;;;;;5013872;28;20187;-66
2022/07/08 05:07:36;;;;;;;1.35;0.98;;;20.70;55.60;;;;;;5014559;28;20176;-66
2022/07/08 05:10:02;;;;;;;1.55;0.85;;;20.60;55.60;;;;;;5014172;28;20176;-65
2022/07/08 05:12:27;;;;;;;2.97;1.00;;;20.60;55.60;;;;;;5013594;28;20241;-66
2022/07/08 05:14:53;;;;;;;1.38;0.95;;;20.70;55.70;;;;;;5014066;28;20535;-66
2022/07/08 05:17:18;;;;;;;1.85;1.00;;;20.70;55.70;;;;;;5013693;28;20180;-67
2022/07/08 05:19:44;;;;;;;2.60;0.98;;;20.60;55.70;;;;;;5014010;28;20243;-66
2022/07/08 05:22:10;;;;;;;2.15;1.08;;;20.60;55.80;;;;;;5014176;28;20168;-65
2022/07/08 05:24:35;;;;;;;3.08;1.20;;;20.60;55.80;;;;;;5013341;28;20177;-65
2022/07/08 05:27:01;;;;;;;1.92;1.17;;;20.70;55.90;;;;;;5013764;28;20180;-65
2022/07/08 05:29:26;;;;;;;2.88;1.05;;;20.60;55.90;;;;;;5014256;28;20176;-66
2022/07/08 05:31:53;;;;;;;2.33;1.20;;;20.70;56.00;;;;;;5013158;28;20187;-65
2022/07/08 05:34:20;;;;;;;1.73;1.00;;;20.70;56.00;;;;;;5014191;28;20192;-66
2022/07/08 05:36:45;;;;;;;1.58;0.90;;;20.70;55.90;;;;;;5013693;28;20248;-66
2022/07/08 05:39:11;;;;;;;2.78;1.52;;;20.70;56.00;;;;;;5012936;28;20762;-66
2022/07/08 05:41:37;;;;;;;2.80;1.10;;;20.70;56.00;;;;;;5013843;28;20176;-65
2022/07/08 05:44:03;;;;;;;1.83;1.27;;;20.70;56.10;;;;;;5013786;28;20180;-65
2022/07/08 05:46:28;;;;;;;2.65;0.93;;;20.70;56.00;;;;;;5013178;28;20177;-65
2022/07/08 05:48:54;;;;;;;2.20;0.90;;;20.70;56.10;;;;;;5013494;28;20287;-64
2022/07/08 05:51:19;;;;;;;1.60;1.17;;;20.70;56.00;;;;;;5013740;28;20271;-65
2022/07/08 05:53:45;;;;;;;2.92;1.10;;;20.70;56.10;;;;;;5012686;28;20654;-65
2022/07/08 05:56:10;;;;;;;1.20;0.95;;;20.70;56.00;;;;;;5013407;28;20184;-65
2022/07/08 05:58:36;;;;;;;2.20;1.10;;;20.70;55.90;;;;;;5013665;28;20216;-65
2022/07/08 06:01:02;;;;;;;1.10;0.90;;;20.70;56.00;;;;;;5012770;28;20172;-65
2022/07/08 06:03:28;;;;;;;1.88;1.08;;;20.70;56.00;;;;;;5013375;28;20235;-66
2022/07/08 06:05:54;;;;;;;2.53;1.00;;;20.70;56.10;;;;;;5013123;28;20323;-65
2022/07/08 06:08:19;;;;;;;1.50;0.80;;;20.70;56.10;;;;;;5012570;28;20358;-65
2022/07/08 06:10:45;;;;;;;1.13;0.80;;;20.70;56.10;;;;;;5013195;28;20645;-65
2022/07/08 06:13:10;;;;;;;3.05;1.40;;;20.70;56.10;;;;;;5013209;28;20183;-65
2022/07/08 06:15:36;;;;;;;1.60;0.90;;;20.70;56.10;;;;;;5012218;28;20287;-66
2022/07/08 06:18:01;;;;;;;1.58;0.90;;;20.70;56.20;;;;;;5013065;28;20241;-66
2022/07/08 06:20:27;;;;;;;2.25;1.33;;;20.70;56.10;;;;;;5012359;28;20421;-66
2022/07/08 06:22:52;;;;;;;2.53;1.20;;;20.70;56.20;;;;;;5012832;28;20169;-65
2022/07/08 06:25:18;;;;;;;2.40;1.05;;;20.70;56.20;;;;;;5012706;28;20549;-65
2022/07/08 06:27:43;;;;;;;2.42;1.20;;;20.70;56.30;;;;;;5012330;28;20180;-65
2022/07/08 06:30:09;;;;;;;2.60;1.27;;;20.70;56.00;;;;;;5013026;28;20315;-65
2022/07/08 06:32:35;;;;;;;2.75;1.50;;;20.80;56.10;;;;;;5013004;28;20201;-65
2022/07/08 06:35:00;;;;;;;1.95;1.15;;;20.80;55.90;;;;;;5011860;28;20173;-67
2022/07/08 06:37:26;;;;;;;2.03;1.08;;;20.80;55.90;;;;;;5012713;28;20235;-66
2022/07/08 06:39:51;;;;;;;1.25;0.88;;;20.80;55.90;;;;;;5012480;28;20745;-65
2022/07/08 06:42:19;;;;;;;1.98;1.10;;;20.80;55.90;;;;;;5012095;28;20259;-65
2022/07/08 06:44:45;;;;;;;2.45;1.23;;;20.90;55.90;;;;;;5012670;28;20273;-65
2022/07/08 06:47:11;;;;;;;3.30;1.00;;;20.80;55.80;;;;;;5012430;28;20631;-65
2022/07/08 06:49:37;;;;;;;2.05;1.10;;;20.80;55.80;;;;;;5011776;28;20196;-65
2022/07/08 06:52:03;;;;;;;2.38;1.23;;;20.90;55.90;;;;;;5012681;28;20559;-65
2022/07/08 06:54:37;;;;;;;1.70;1.00;;;20.90;55.80;;;;;;5012390;28;20647;-64
2022/07/08 06:57:04;;;;;;;4.57;1.45;;;20.90;55.80;;;;;;5011853;28;20174;-65
2022/07/08 06:59:29;;;;;;;4.28;1.20;;;21.00;55.90;;;;;;5012557;28;20219;-65
2022/07/08 07:01:55;;;;;;;6.13;1.63;;;21.00;56.00;;;;;;5012350;28;20169;-65
2022/07/08 07:04:20;;;;;;;4.28;1.48;;;21.00;56.00;;;;;;5011705;28;20255;-64
2022/07/08 07:06:47;;;;;;;3.15;1.20;;;21.00;56.20;;;;;;5012208;28;20255;-64
2022/07/08 07:09:13;;;;;;;7.35;1.50;;;21.00;56.30;;;;;;5012531;28;20180;-65
2022/07/08 07:11:39;;;;;;;5.47;1.15;;;21.00;56.20;;;;;;5011659;28;20184;-65
2022/07/08 07:14:05;;;;;;;4.75;1.40;;;21.00;56.20;;;;;;5012484;28;20204;-66
2022/07/08 07:16:31;;;;;;;14.07;2.15;;;21.00;56.20;;;;;;5012518;28;20578;-65
2022/07/08 07:18:56;;;;;;;2.67;1.35;;;21.00;56.30;;;;;;5011252;28;20631;-64
2022/07/08 07:21:22;;;;;;;3.80;1.25;;;21.10;56.20;;;;;;5012213;28;20584;-65
2022/07/08 07:23:47;;;;;;;4.90;1.35;;;21.10;56.30;;;;;;5011664;28;20212;-65
2022/07/08 07:26:13;;;;;;;3.55;1.30;;;21.10;56.30;;;;;;5012440;28;20176;-66
2022/07/08 07:28:38;;;;;;;3.10;1.13;;;21.10;56.40;;;;;;5012336;28;20173;-65
2022/07/08 07:31:04;;;;;;;2.80;1.23;;;21.20;56.50;;;;;;5011394;28;20902;-65
2022/07/08 07:33:29;;;;;;;4.07;1.50;;;21.20;56.60;;;;;;5012334;28;20181;-66
2022/07/08 07:35:56;;;;;;;3.72;1.65;;;21.10;56.50;;;;;;5011917;28;20255;-64
2022/07/08 07:38:21;;;;;;;5.43;1.77;;;21.10;56.50;;;;;;5011354;28;20628;-66
2022/07/08 07:40:47;;;;;;;3.78;1.23;;;21.20;56.60;;;;;;5012071;28;20176;-65
2022/07/08 07:43:12;;;;;;;3.65;1.30;;;21.20;56.70;;;;;;5012181;28;20177;-65
2022/07/08 07:45:38;;;;;;;3.28;1.40;;;21.20;56.70;;;;;;5011282;28;20177;-66
2022/07/08 07:48:03;;;;;;;4.47;1.30;;;21.20;56.90;;;;;;5012184;28;20172;-64
2022/07/08 07:50:29;;;;;;;3.92;1.42;;;21.20;56.90;;;;;;5011825;28;20636;-64
2022/07/08 07:52:54;;;;;;;4.57;1.60;;;21.20;56.90;;;;;;5011279;28;20169;-64
2022/07/08 07:55:20;;;;;;;4.88;1.80;;;21.20;56.90;;;;;;5011995;28;20172;-64
2022/07/08 07:57:47;;;;;;;3.17;1.50;;;21.20;56.90;;;;;;5011889;28;20268;-64
2022/07/08 08:00:13;;;;;;;3.92;1.55;;;21.30;57.00;;;;;;5012377;28;20219;-65
2022/07/08 08:02:39;;;;;;;4.20;1.17;;;21.30;57.00;;;;;;5015197;28;20172;-65
2022/07/08 08:05:05;;;;;;;3.85;1.58;;;21.30;57.00;;;;;;5015577;28;20238;-65
2022/07/08 08:07:30;;;;;;;4.88;1.48;;;21.30;57.00;;;;;;5015100;28;20191;-65
2022/07/08 08:09:56;;;;;;;4.20;1.38;;;21.30;57.00;;;;;;5015348;28;20200;-65
2022/07/08 08:12:21;;;;;;;3.17;1.50;;;21.30;57.00;;;;;;5015663;28;20212;-65
2022/07/08 08:14:47;;;;;;;7.75;1.95;;;21.30;57.10;;;;;;5014586;28;20231;-65
2022/07/08 08:17:12;;;;;;;3.95;1.55;;;21.30;57.10;;;;;;5015317;28;20211;-65
2022/07/08 08:19:38;;;;;;;3.90;1.77;;;21.30;57.10;;;;;;5015017;28;20304;-62
2022/07/08 08:22:03;;;;;;;5.57;1.38;;;21.30;57.10;;;;;;5014490;28;20280;-68
2022/07/08 08:24:29;;;;;;;3.05;1.42;;;21.40;57.20;;;;;;5015375;28;20647;-65
2022/07/08 08:26:54;;;;;;;4.72;1.20;;;21.30;57.10;;;;;;5015013;28;20173;-66
2022/07/08 08:29:20;;;;;;;4.78;1.40;;;21.30;57.10;;;;;;5014462;28;20177;-65
2022/07/08 08:31:45;;;;;;;6.55;1.50;;;21.30;57.10;;;;;;5014865;28;20238;-65
2022/07/08 08:34:11;;;;;;;2.83;1.20;;;21.30;57.20;;;;;;5014184;28;20709;-65
2022/07/08 08:36:36;;;;;;;3.80;1.45;;;21.30;57.20;;;;;;5014803;28;20204;-65
2022/07/08 08:39:02;;;;;;;3.78;1.30;;;21.30;57.30;;;;;;5015034;28;20219;-67
2022/07/08 08:41:27;;;;;;;4.32;1.20;;;21.40;57.20;;;;;;5014336;28;20176;-66
2022/07/08 08:43:53;;;;;;;2.53;1.17;;;21.40;57.00;;;;;;5014622;28;20180;-66
2022/07/08 08:46:23;;;;;;;5.40;1.70;;;21.50;56.90;;;;;;4997235;28;20180;-66
2022/07/08 08:48:49;;;;;;;3.83;1.75;;;21.50;56.90;;;;;;5013771;28;20185;-65
2022/07/08 08:51:17;;;;;;;3.63;1.45;;;21.60;56.90;;;;;;4997056;28;20172;-66
2022/07/08 08:53:44;;;;;;;4.40;1.20;;;21.50;56.90;;;;;;4997095;28;20544;-66
2022/07/08 08:56:10;;;;;;;3.72;1.50;;;21.50;56.90;;;;;;5014059;28;20185;-67
2022/07/08 08:58:42;;;;;;;5.07;1.63;;;21.50;57.00;;;;;;5014721;28;20215;-71
2022/07/08 09:01:07;;;;;;;3.83;1.45;;;21.50;57.00;;;;;;5014434;28;20239;-71
2022/07/08 09:03:34;;;;;;;2.95;1.50;;;21.50;57.00;;;;;;5013620;28;20224;-72
2022/07/08 09:05:59;;;;;;;2.88;1.23;;;21.50;57.00;;;;;;5014127;28;20516;-71
2022/07/08 09:08:25;;;;;;;4.50;1.33;;;21.50;57.00;;;;;;5014631;28;20208;-72
2022/07/08 09:10:50;;;;;;;4.10;1.33;;;21.50;57.00;;;;;;5013309;28;20643;-72
2022/07/08 09:13:16;;;;;;;2.97;1.13;;;21.50;57.00;;;;;;5014294;28;20661;-72
2022/07/08 09:15:46;;;;;;;5.40;1.63;;;21.60;57.10;;;;;;5013998;28;20184;-71
2022/07/08 09:18:13;;;;;;;4.45;1.73;;;21.60;57.00;;;;;;5013360;28;20188;-71
2022/07/08 09:20:44;;;;;;;3.10;0.95;;;21.60;57.00;;;;;;5013857;28;20549;-71
2022/07/08 09:23:14;;;;;;;2.92;1.20;;;21.60;56.90;;;;;;5014282;28;20189;-70
2022/07/08 09:25:40;;;;;;;3.80;1.60;;;21.60;56.90;;;;;;5013207;28;20188;-71
2022/07/08 09:28:05;;;;;;;5.93;1.48;;;21.60;56.90;;;;;;5013995;28;20169;-71
2022/07/08 09:30:31;;;;;;;3.58;1.20;;;21.70;56.90;;;;;;5013252;28;20580;-72
2022/07/08 09:32:58;;;;;;;2.80;1.42;;;21.70;56.80;;;;;;5013907;28;20238;-72
2022/07/08 09:35:50;;;;;;;3.33;1.40;;;21.70;56.70;;;;;;5013747;28;20601;-73
2022/07/08 09:38:19;;;;;;;2.75;1.17;;;21.70;56.60;;;;;;4991308;28;20532;-72
2022/07/08 09:40:57;;;;;;;2.25;1.05;;;21.80;56.60;;;;;;4996562;28;20312;-71
2022/07/08 09:43:23;;;;;;;4.95;1.35;;;21.90;56.40;;;;;;5013973;28;20184;-71
2022/07/08 09:45:48;;;;;;;2.70;1.20;;;21.90;56.30;;;;;;5012914;28;20184;-71
2022/07/08 09:48:14;;;;;;;3.42;1.40;;;21.90;56.30;;;;;;5013704;28;20172;-71
2022/07/08 09:50:47;;;;;;;3.83;1.58;;;21.90;56.30;;;;;;5013519;28;20176;-70
2022/07/08 09:53:16;;;;;;;5.38;1.30;;;21.90;56.20;;;;;;5012800;28;20195;-71
2022/07/08 09:55:43;;;;;;;2.40;1.38;;;21.90;56.30;;;;;;5013330;28;20264;-75
2022/07/08 09:58:10;;;;;;;2.70;1.45;;;21.80;56.30;;;;;;5014396;28;20180;-72
2022/07/08 10:00:36;;;;;;;6.32;1.45;;;21.80;56.40;;;;;;5021388;28;20564;-71
2022/07/08 10:03:03;;;;;;;3.28;1.13;;;21.80;56.50;;;;;;4988743;28;20704;-71
2022/07/08 10:05:29;;;;;;;3.13;1.10;;;21.80;56.50;;;;;;5015444;28;20585;-72
2022/07/08 10:07:54;;;;;;;2.92;1.25;;;21.70;56.60;;;;;;5017892;28;20169;-73
2022/07/08 10:10:20;;;;;;;1.77;1.00;;;21.80;56.60;;;;;;4995758;28;20180;-73
2022/07/08 10:12:46;;;;;;;2.75;1.00;;;21.70;56.50;;;;;;5012656;28;20185;-71
2022/07/08 10:15:11;;;;;;;4.18;1.33;;;21.90;56.50;;;;;;4999737;28;20229;-71
2022/07/08 10:17:40;;;;;;;2.00;1.17;;;21.90;56.40;;;;;;5032840;28;20176;-71
2022/07/08 10:20:06;;;;;;;2.20;1.10;;;21.90;56.40;;;;;;5014746;28;20220;-71
2022/07/08 10:22:32;;;;;;;4.40;1.00;;;21.80;56.50;;;;;;5014486;28;20210;-71
2022/07/08 10:24:57;;;;;;;4.45;1.40;;;21.80;56.50;;;;;;5014749;28;20275;-71
2022/07/08 10:27:23;;;;;;;4.70;1.35;;;21.80;56.60;;;;;;5010275;28;20176;-72
2022/07/08 10:29:49;;;;;;;2.35;1.40;;;21.80;56.60;;;;;;4995479;28;20187;-73
2022/07/08 10:32:26;;;;;;;1.77;1.02;;;21.90;56.50;;;;;;5016945;28;20582;-72
2022/07/08 10:35:11;;;;;;;3.50;1.40;;;21.80;56.50;;;;;;5032054;28;20288;-71
2022/07/08 10:37:59;;;;;;;2.47;1.20;;;21.80;56.50;;;;;;5032466;28;20183;-73
2022/07/08 10:40:43;;;;;;;4.60;1.63;;;21.80;56.60;;;;;;5032542;28;20586;-74
2022/07/08 10:43:22;;;;;;;2.17;1.17;;;21.80;56.50;;;;;;5032436;28;20259;-72
2022/07/08 10:46:12;;;;;;;2.20;1.15;;;21.90;56.50;;;;;;5032480;28;20171;-71
2022/07/08 10:48:41;;;;;;;2.85;1.10;;;21.80;56.50;;;;;;5031515;28;20677;-71
2022/07/08 10:51:19;;;;;;;3.47;1.40;;;21.80;56.60;;;;;;5032374;28;20639;-71
2022/07/08 10:53:48;;;;;;;1.58;0.93;;;21.80;56.70;;;;;;5032239;28;20179;-71
2022/07/08 10:56:48;;;;;;;1.38;1.15;;;21.80;56.80;;;;;;5032878;28;20179;-72
2022/07/08 10:59:26;;;;;;;2.55;1.20;;;21.80;56.80;;;;;;5032331;28;20238;-71
2022/07/08 11:01:56;;;;;;;1.95;0.88;;;21.80;56.70;;;;;;5031533;28;20210;-76
2022/07/08 11:04:34;;;;;;;3.72;1.08;;;21.90;56.70;;;;;;5031913;28;20227;-76
2022/07/08 11:07:17;;;;;;;1.30;1.20;;;21.90;56.80;;;;;;5023102;28;20244;-75
2022/07/08 11:09:51;;;;;;;3.65;1.10;;;21.90;56.80;;;;;;5011805;28;20176;-75
2022/07/08 11:12:21;;;;;;;4.35;1.27;;;21.90;56.90;;;;;;5012097;28;20174;-78
2022/07/08 11:14:48;;;;;;;1.35;1.02;;;21.90;57.00;;;;;;5012136;28;20206;-73
2022/07/08 11:17:24;;;;;;;3.58;1.35;;;21.80;57.00;;;;;;5011817;28;20180;-72
2022/07/08 11:19:51;;;;;;;2.55;1.10;;;21.90;56.90;;;;;;5012170;28;20235;-73
2022/07/08 11:22:17;;;;;;;2.45;1.35;;;22.10;56.70;;;;;;5012270;28;20180;-75
2022/07/08 11:24:43;;;;;;;2.50;1.17;;;22.20;56.40;;;;;;5011440;28;20227;-72
2022/07/08 11:27:09;;;;;;;1.25;0.90;;;22.10;56.50;;;;;;5012084;28;20172;-73
2022/07/08 11:29:34;;;;;;;3.08;1.50;;;22.10;56.60;;;;;;5012508;28;21302;-76
2022/07/08 11:32:01;;;;;;;2.97;1.38;;;22.00;56.60;;;;;;5011366;28;20184;-71
2022/07/08 11:34:27;;;;;;;1.85;1.20;;;22.00;56.80;;;;;;5013963;28;20191;-75
2022/07/08 11:36:56;;;;;;;2.58;1.30;;;22.00;56.80;;;;;;5015954;28;20173;-74
2022/07/08 11:39:22;;;;;;;3.13;1.30;;;22.00;56.80;;;;;;5015687;28;20208;-75
2022/07/08 11:41:47;;;;;;;4.18;1.08;;;21.90;56.70;;;;;;5015281;28;20168;-74
2022/07/08 11:44:13;;;;;;;2.35;0.93;;;22.00;56.80;;;;;;5015410;28;20606;-75
2022/07/08 11:46:51;;;;;;;2.83;1.30;;;22.00;56.90;;;;;;5015762;28;20547;-72
2022/07/08 11:49:17;;;;;;;2.85;1.33;;;22.00;56.90;;;;;;5015749;28;20527;-72
2022/07/08 11:51:46;;;;;;;4.85;1.67;;;21.90;56.90;;;;;;5014999;28;20211;-72
2022/07/08 11:54:13;;;;;;;3.05;1.17;;;21.90;56.90;;;;;;5015752;28;20275;-73
2022/07/08 11:56:39;;;;;;;3.00;1.00;;;21.90;57.00;;;;;;5015411;28;20181;-72
2022/07/08 11:59:04;;;;;;;1.65;1.15;;;21.90;56.90;;;;;;5015039;28;20253;-74
2022/07/08 12:01:30;;;;;;;2.30;1.08;;;21.90;56.90;;;;;;5015645;28;20591;-73
2022/07/08 12:03:57;;;;;;;1.15;0.90;;;21.90;56.90;;;;;;5015057;28;20701;-74
2022/07/08 12:06:26;;;;;;;2.47;1.30;;;21.90;56.80;;;;;;5001246;28;20172;-76
2022/07/08 12:08:53;;;;;;;3.13;1.20;;;21.90;56.90;;;;;;5035348;28;20202;-75
2022/07/08 12:11:22;;;;;;;2.08;1.42;;;21.90;56.90;;;;;;5035764;28;20255;-76
2022/07/08 12:13:49;;;;;;;3.80;1.38;;;21.90;56.90;;;;;;5034492;28;20180;-74
2022/07/08 12:16:30;;;;;;;3.22;1.17;;;21.90;56.90;;;;;;5035183;28;20275;-76
2022/07/08 12:18:56;;;;;;;2.30;1.00;;;22.00;56.80;;;;;;5034968;28;20211;-73
2022/07/08 12:21:22;;;;;;;1.83;1.20;;;22.00;56.80;;;;;;5034375;28;20183;-74
2022/07/08 12:23:57;;;;;;;3.67;1.67;;;21.90;57.40;;;;;;5034811;28;20172;-73
2022/07/08 12:26:23;;;;;;;3.80;1.40;;;21.90;56.80;;;;;;5034432;28;20186;-74
2022/07/08 12:28:48;;;;;;;2.03;0.98;;;21.90;56.80;;;;;;5034715;28;20176;-75
2022/07/08 12:31:36;;;;;;;2.30;1.25;;;21.90;56.90;;;;;;5034785;28;20263;-75
2022/07/08 12:34:06;;;;;;;2.80;1.20;;;21.80;57.00;;;;;;5034335;28;20184;-74
2022/07/08 12:36:33;;;;;;;2.28;1.30;;;21.80;57.00;;;;;;5034886;28;20176;-74
2022/07/08 12:39:09;;;;;;;2.25;1.10;;;21.80;57.00;;;;;;5034618;28;20294;-74
2022/07/08 12:41:35;;;;;;;2.47;1.30;;;21.80;57.00;;;;;;5034242;28;20176;-74
2022/07/08 12:44:39;;;;;;;2.80;1.20;;;21.80;57.10;;;;;;5034394;28;20195;-72
2022/07/08 12:47:05;;;;;;;4.97;1.38;;;21.90;57.10;;;;;;5034067;28;20182;-70